タヒチ島 の空港の天気 - METARとTAF

タヒチ・ファアア国際空港 ( NTAA / PPT ) - フランス領ポリネシア タヒチ島
飛行場実況気象(Metar)
観測時間07/28 17:30 TAHT (07/29 03:30 UTC)
風向・風速南南西 5m/s
視程10km以上
天気現象
全天の4割程度の雲 雲底高度 580m
全天の8割程度の雲 雲底高度 1310m
気温25℃
湿度83%
気圧1015hPa
METARNTAA 290330Z 21009KT 9999 SCT019 BKN043 25/22 Q1015 NOSIG
過去の天気等 Google飛行場航空写真 Wunderground天気予報

過去48時間のMETAR

飛行場予報(TAF)
発表時間: 7/28 13:00 TAHT (7/28 23:00 UTC)
予報対象時間: 28日14時 TAHT ~ 29日20時 TAHT
風向・風速不定 3m/s
視程10km以上
少しの雲 雲底高度 700m
28日22時 TAHT ~ 29日5時 TAHT に一時的に
全天の4割程度の雲 雲底高度 550m
全天の8割程度の雲 雲底高度 1520m
TAF NTAA 282300Z 2900/3006 VRB05KT 9999 FEW023
TEMPO 2908/2915 SCT018 BKN050